PWSweather.com
Personal Weather Stations
Station Observations
KVAGLENALL
West Henrico, Glen Allen, VA 23060-6503

West HenricoGlen Allen, VA 23060-6503

Lat: 37.6554, Lon: -77.5693

Elevation: 273

Station Type: Davis Vantage Pro II

www.glenallenweather.com

High Low Average
Temperature 90.0°F32.2°C 67.4°F19.7°C 78.1°F25.6°C
Dew Point 75.7°F24.3°C 66.7°F19.3°C 71.4°F21.9°C
Winds 7.0 mph 11.3 kmh Calm Calm 1.0 mph SSW1.6 kmh SSW
Wind Gusts 10.1 mph16.3 kmh -- 2.0 mph3.2 kmh
Humidity 99% 56% 82%
Pressure 30.09 in1019.0 mb 29.98 in1015.2 mb -
Precipitation 0.00 in0.0 mm - -
Hour Temp Dew Point Humidity Winds Wind Gusts Pressure Precip Precip Rate Daily Precip Total
12:00 AM 71.6°F22.0°C 69.7°F20.9°C 94% Calm Calm 1.0 mph1.6 kmh 30.00 in1015.9 mb 0.04 in1.0 mm 0.00 in0.0 mm 0.04 in1.0 mm
12:15 AM 71.6°F22.0°C 69.7°F20.9°C 94% Calm Calm -- 30.01 in1016.3 mb 0.04 in1.0 mm 0.00 in0.0 mm 0.04 in1.0 mm
12:30 AM 71.2°F21.8°C 69.7°F20.9°C 95% Calm Calm -- 30.01 in1016.3 mb 0.04 in1.0 mm 0.00 in0.0 mm 0.04 in1.0 mm
12:45 AM 70.9°F21.6°C 69.4°F20.8°C 95% Calm Calm -- 30.00 in1015.9 mb 0.04 in1.0 mm 0.00 in0.0 mm 0.04 in1.0 mm
01:00 AM 70.7°F21.5°C 69.2°F20.7°C 95% Calm Calm -- 30.01 in1016.3 mb 0.00 in0.0 mm 0.00 in0.0 mm 0.04 in1.0 mm
01:15 AM 70.5°F21.4°C 69.0°F20.6°C 95% Calm Calm -- 30.00 in1015.9 mb 0.00 in0.0 mm 0.00 in0.0 mm 0.04 in1.0 mm
01:30 AM 70.2°F21.2°C 68.7°F20.4°C 95% Calm Calm -- 30.00 in1015.9 mb 0.00 in0.0 mm 0.00 in0.0 mm 0.04 in1.0 mm
01:45 AM 70.0°F21.1°C 68.8°F20.4°C 96% Calm Calm -- 30.00 in1015.9 mb 0.00 in0.0 mm 0.00 in0.0 mm 0.04 in1.0 mm
02:00 AM 69.7°F20.9°C 68.5°F20.3°C 96% Calm Calm -- 30.00 in1015.9 mb 0.01 in0.3 mm 0.01 in0.3 mm 0.05 in1.3 mm
02:15 AM 69.7°F20.9°C 68.5°F20.3°C 96% Calm Calm -- 29.99 in1015.6 mb 0.01 in0.3 mm 0.00 in0.0 mm 0.05 in1.3 mm
02:30 AM 69.7°F20.9°C 68.8°F20.4°C 97% Calm Calm -- 29.99 in1015.6 mb 0.01 in0.3 mm 0.00 in0.0 mm 0.05 in1.3 mm
02:45 AM 69.6°F20.9°C 68.4°F20.2°C 96% Calm Calm -- 29.99 in1015.6 mb 0.01 in0.3 mm 0.00 in0.0 mm 0.05 in1.3 mm
03:00 AM 69.4°F20.8°C 68.2°F20.1°C 96% Calm Calm -- 29.99 in1015.6 mb 0.00 in0.0 mm 0.00 in0.0 mm 0.05 in1.3 mm
03:15 AM 69.6°F20.9°C 68.4°F20.2°C 96% Calm Calm -- 29.99 in1015.6 mb 0.00 in0.0 mm 0.00 in0.0 mm 0.05 in1.3 mm
03:30 AM 69.0°F20.6°C 68.2°F20.1°C 97% Calm Calm -- 29.99 in1015.6 mb 0.00 in0.0 mm 0.00 in0.0 mm 0.05 in1.3 mm
03:45 AM 68.9°F20.5°C 67.8°F19.9°C 96% Calm Calm -- 29.99 in1015.6 mb 0.00 in0.0 mm 0.00 in0.0 mm 0.05 in1.3 mm
04:00 AM 69.1°F20.6°C 68.3°F20.2°C 97% Calm Calm -- 29.98 in1015.2 mb 0.00 in0.0 mm 0.00 in0.0 mm 0.05 in1.3 mm
04:15 AM 68.9°F20.5°C 68.1°F20.1°C 97% Calm Calm -- 29.98 in1015.2 mb 0.00 in0.0 mm 0.00 in0.0 mm 0.05 in1.3 mm
04:30 AM 68.7°F20.4°C 67.9°F19.9°C 97% Calm Calm -- 29.98 in1015.2 mb 0.00 in0.0 mm 0.00 in0.0 mm 0.05 in1.3 mm
04:45 AM 68.5°F20.3°C 67.7°F19.8°C 97% Calm Calm -- 29.98 in1015.2 mb 0.00 in0.0 mm 0.00 in0.0 mm 0.05 in1.3 mm
05:00 AM 68.4°F20.2°C 67.9°F19.9°C 98% Calm Calm -- 29.98 in1015.2 mb 0.00 in0.0 mm 0.00 in0.0 mm 0.05 in1.3 mm
05:15 AM 67.9°F19.9°C 67.1°F19.5°C 97% Calm Calm -- 29.98 in1015.2 mb 0.00 in0.0 mm 0.00 in0.0 mm 0.05 in1.3 mm
05:30 AM 67.8°F19.9°C 67.0°F19.4°C 97% Calm Calm -- 29.98 in1015.2 mb 0.00 in0.0 mm 0.00 in0.0 mm 0.05 in1.3 mm
05:45 AM 67.7°F19.8°C 66.9°F19.4°C 97% Calm Calm -- 29.99 in1015.6 mb 0.00 in0.0 mm 0.00 in0.0 mm 0.05 in1.3 mm
06:00 AM 67.7°F19.8°C 66.9°F19.4°C 97% Calm Calm -- 29.99 in1015.6 mb 0.00 in0.0 mm 0.00 in0.0 mm 0.05 in1.3 mm
06:15 AM 67.7°F19.8°C 66.9°F19.4°C 97% Calm Calm -- 29.99 in1015.6 mb 0.00 in0.0 mm 0.00 in0.0 mm 0.05 in1.3 mm
06:30 AM 67.5°F19.7°C 66.7°F19.3°C 97% Calm Calm -- 30.00 in1015.9 mb 0.00 in0.0 mm 0.00 in0.0 mm 0.05 in1.3 mm
06:45 AM 67.4°F19.7°C 66.9°F19.4°C 98% Calm Calm -- 30.00 in1015.9 mb 0.01 in0.3 mm 0.04 in1.0 mm 0.06 in1.5 mm
07:00 AM 67.4°F19.7°C 66.9°F19.4°C 98% Calm Calm -- 30.01 in1016.3 mb 0.01 in0.3 mm 0.00 in0.0 mm 0.06 in1.5 mm
07:15 AM 67.8°F19.9°C 67.3°F19.6°C 98% Calm Calm -- 30.01 in1016.3 mb 0.01 in0.3 mm 0.00 in0.0 mm 0.06 in1.5 mm
07:30 AM 68.5°F20.3°C 68.3°F20.2°C 99% Calm Calm -- 30.02 in1016.6 mb 0.01 in0.3 mm 0.00 in0.0 mm 0.06 in1.5 mm
07:45 AM 69.5°F20.8°C 69.2°F20.7°C 99% Calm Calm -- 30.02 in1016.6 mb 0.01 in0.3 mm 0.00 in0.0 mm 0.06 in1.5 mm
08:00 AM 70.4°F21.3°C 70.1°F21.2°C 99% Calm Calm -- 30.03 in1016.9 mb 0.00 in0.0 mm 0.00 in0.0 mm 0.06 in1.5 mm
08:15 AM 71.7°F22.1°C 71.4°F21.9°C 99% Calm Calm -- 30.03 in1016.9 mb 0.00 in0.0 mm 0.00 in0.0 mm 0.06 in1.5 mm
08:30 AM 73.0°F22.8°C 72.7°F22.6°C 99% Calm Calm -- 30.04 in1017.3 mb 0.00 in0.0 mm 0.00 in0.0 mm 0.06 in1.5 mm
08:45 AM 74.9°F23.8°C 73.0°F22.8°C 94% Calm Calm -- 30.04 in1017.3 mb 0.00 in0.0 mm 0.00 in0.0 mm 0.06 in1.5 mm
09:00 AM 77.0°F25.0°C 73.5°F23.1°C 89% Calm Calm 3.0 mph4.8 kmh 30.05 in1017.6 mb 0.00 in0.0 mm 0.00 in0.0 mm 0.06 in1.5 mm
09:15 AM 78.0°F25.6°C 73.8°F23.2°C 87% Calm Calm -- 30.04 in1017.3 mb 0.00 in0.0 mm 0.00 in0.0 mm 0.06 in1.5 mm
09:30 AM 79.0°F26.1°C 74.1°F23.4°C 85% Calm Calm -- 30.05 in1017.6 mb 0.00 in0.0 mm 0.00 in0.0 mm 0.06 in1.5 mm
09:45 AM 80.0°F26.7°C 73.3°F22.9°C 80% 2.0 mph NW3.2 kmh NW 2.0 mph3.2 kmh 30.05 in1017.6 mb 0.00 in0.0 mm 0.00 in0.0 mm 0.06 in1.5 mm
10:00 AM 81.1°F27.3°C 75.1°F23.9°C 82% Calm Calm -- 30.06 in1017.9 mb 0.00 in0.0 mm 0.00 in0.0 mm 0.06 in1.5 mm
10:15 AM 82.9°F28.3°C 75.7°F24.3°C 79% 1.0 mph WSW1.6 kmh WSW 3.0 mph4.8 kmh 30.06 in1017.9 mb 0.00 in0.0 mm 0.00 in0.0 mm 0.06 in1.5 mm
10:30 AM 84.1°F28.9°C 74.1°F23.4°C 72% 1.0 mph NE1.6 kmh NE 1.0 mph1.6 kmh 30.07 in1018.3 mb 0.00 in0.0 mm 0.00 in0.0 mm 0.06 in1.5 mm
10:45 AM 85.4°F29.7°C 74.5°F23.6°C 70% 1.0 mph NW1.6 kmh NW 3.0 mph4.8 kmh 30.06 in1017.9 mb 0.00 in0.0 mm 0.00 in0.0 mm 0.06 in1.5 mm
11:00 AM 86.1°F30.1°C 73.5°F23.1°C 66% 1.0 mph NNE1.6 kmh NNE 4.0 mph6.4 kmh 30.06 in1017.9 mb 0.00 in0.0 mm 0.00 in0.0 mm 0.06 in1.5 mm
11:15 AM 86.5°F30.3°C 71.5°F21.9°C 61% 1.0 mph E1.6 kmh E 3.0 mph4.8 kmh 30.07 in1018.3 mb 0.00 in0.0 mm 0.00 in0.0 mm 0.06 in1.5 mm
11:30 AM 86.0°F30.0°C 73.8°F23.2°C 67% 4.0 mph NE6.4 kmh NE 5.1 mph8.2 kmh 30.06 in1017.9 mb 0.00 in0.0 mm 0.00 in0.0 mm 0.06 in1.5 mm
11:45 AM 86.7°F30.4°C 72.6°F22.6°C 63% 1.0 mph NW1.6 kmh NW 1.0 mph1.6 kmh 30.06 in1017.9 mb 0.00 in0.0 mm 0.00 in0.0 mm 0.06 in1.5 mm
12:00 PM 87.1°F30.6°C 72.5°F22.5°C 62% 4.0 mph SE6.4 kmh SE 4.0 mph6.4 kmh 30.06 in1017.9 mb 0.00 in0.0 mm 0.00 in0.0 mm 0.06 in1.5 mm
12:15 PM 87.5°F30.8°C 71.5°F21.9°C 59% 1.0 mph SE1.6 kmh SE 3.0 mph4.8 kmh 30.06 in1017.9 mb 0.00 in0.0 mm 0.00 in0.0 mm 0.06 in1.5 mm
12:30 PM 87.7°F30.9°C 71.6°F22.0°C 59% 4.0 mph SW6.4 kmh SW 4.0 mph6.4 kmh 30.05 in1017.6 mb 0.00 in0.0 mm 0.00 in0.0 mm 0.06 in1.5 mm
12:45 PM 88.8°F31.6°C 75.6°F24.2°C 65% Calm Calm 2.0 mph3.2 kmh 30.05 in1017.6 mb 0.00 in0.0 mm 0.00 in0.0 mm 0.06 in1.5 mm
01:00 PM 88.6°F31.4°C 72.0°F22.2°C 58% Calm Calm 4.0 mph6.4 kmh 30.04 in1017.3 mb 0.00 in0.0 mm 0.00 in0.0 mm 0.06 in1.5 mm
01:15 PM 89.2°F31.8°C 71.5°F21.9°C 56% 1.0 mph ENE1.6 kmh ENE 2.0 mph3.2 kmh 30.04 in1017.3 mb 0.00 in0.0 mm 0.00 in0.0 mm 0.06 in1.5 mm
01:30 PM 88.1°F31.2°C 71.5°F21.9°C 58% 4.0 mph SW6.4 kmh SW 4.0 mph6.4 kmh 30.04 in1017.3 mb 0.00 in0.0 mm 0.00 in0.0 mm 0.06 in1.5 mm
01:45 PM 88.3°F31.3°C 70.7°F21.5°C 56% 4.0 mph S6.4 kmh S 4.0 mph6.4 kmh 30.04 in1017.3 mb 0.00 in0.0 mm 0.00 in0.0 mm 0.06 in1.5 mm
02:00 PM 86.7°F30.4°C 74.0°F23.3°C 66% 1.0 mph S1.6 kmh S 2.0 mph3.2 kmh 30.03 in1016.9 mb 0.00 in0.0 mm 0.00 in0.0 mm 0.06 in1.5 mm
02:15 PM 88.6°F31.4°C 73.0°F22.8°C 60% 1.0 mph S1.6 kmh S 2.0 mph3.2 kmh 30.04 in1017.3 mb 0.00 in0.0 mm 0.00 in0.0 mm 0.06 in1.5 mm
02:30 PM 89.7°F32.1°C 72.4°F22.4°C 57% 2.0 mph SSW3.2 kmh SSW 5.1 mph8.2 kmh 30.03 in1016.9 mb 0.00 in0.0 mm 0.00 in0.0 mm 0.06 in1.5 mm
02:45 PM 89.1°F31.7°C 71.4°F21.9°C 56% 1.0 mph S1.6 kmh S 3.0 mph4.8 kmh 30.02 in1016.6 mb 0.00 in0.0 mm 0.00 in0.0 mm 0.06 in1.5 mm
03:00 PM 89.9°F32.2°C 72.6°F22.6°C 57% 3.0 mph SSW4.8 kmh SSW 6.1 mph9.8 kmh 30.02 in1016.6 mb 0.00 in0.0 mm 0.00 in0.0 mm 0.06 in1.5 mm
03:15 PM 90.0°F32.2°C 73.7°F23.2°C 59% 4.0 mph S6.4 kmh S 7.1 mph11.4 kmh 30.02 in1016.6 mb 0.00 in0.0 mm 0.00 in0.0 mm 0.06 in1.5 mm
03:30 PM 89.2°F31.8°C 74.0°F23.3°C 61% Calm Calm 1.0 mph1.6 kmh 30.02 in1016.6 mb 0.00 in0.0 mm 0.00 in0.0 mm 0.06 in1.5 mm
03:45 PM 88.4°F31.3°C 72.8°F22.7°C 60% 3.0 mph S4.8 kmh S 6.1 mph9.8 kmh 30.01 in1016.3 mb 0.00 in0.0 mm 0.00 in0.0 mm 0.06 in1.5 mm
04:00 PM 89.2°F31.8°C 72.5°F22.5°C 58% 6.0 mph SSW9.7 kmh SSW 8.1 mph13.0 kmh 30.02 in1016.6 mb 0.00 in0.0 mm 0.00 in0.0 mm 0.06 in1.5 mm
04:15 PM 88.6°F31.4°C 72.0°F22.2°C 58% 7.0 mph SW11.3 kmh SW 7.1 mph11.4 kmh 30.01 in1016.3 mb 0.00 in0.0 mm 0.00 in0.0 mm 0.06 in1.5 mm
04:30 PM 88.7°F31.5°C 74.5°F23.6°C 63% Calm Calm 3.0 mph4.8 kmh 30.02 in1016.6 mb 0.00 in0.0 mm 0.00 in0.0 mm 0.06 in1.5 mm
04:45 PM 87.3°F30.7°C 73.7°F23.2°C 64% 6.0 mph SW9.7 kmh SW 10.1 mph16.3 kmh 30.02 in1016.6 mb 0.00 in0.0 mm 0.00 in0.0 mm 0.06 in1.5 mm
05:00 PM 86.5°F30.3°C 75.2°F24.0°C 69% 2.0 mph W3.2 kmh W 7.1 mph11.4 kmh 30.02 in1016.6 mb 0.00 in0.0 mm 0.00 in0.0 mm 0.06 in1.5 mm
05:15 PM 86.1°F30.1°C 73.5°F23.1°C 66% 3.0 mph WSW4.8 kmh WSW 9.1 mph14.6 kmh 30.02 in1016.6 mb 0.00 in0.0 mm 0.00 in0.0 mm 0.06 in1.5 mm
05:30 PM 86.1°F30.1°C 74.8°F23.8°C 69% 1.0 mph SW1.6 kmh SW 4.0 mph6.4 kmh 30.02 in1016.6 mb 0.00 in0.0 mm 0.00 in0.0 mm 0.06 in1.5 mm
05:45 PM 86.7°F30.4°C 72.6°F22.6°C 63% 1.0 mph N1.6 kmh N 6.1 mph9.8 kmh 30.01 in1016.3 mb 0.00 in0.0 mm 0.00 in0.0 mm 0.06 in1.5 mm
06:00 PM 86.2°F30.1°C 74.0°F23.3°C 67% 3.0 mph S4.8 kmh S 7.1 mph11.4 kmh 30.02 in1016.6 mb 0.00 in0.0 mm 0.00 in0.0 mm 0.06 in1.5 mm
06:15 PM 85.3°F29.6°C 74.0°F23.3°C 69% Calm Calm 2.0 mph3.2 kmh 30.01 in1016.3 mb 0.00 in0.0 mm 0.00 in0.0 mm 0.06 in1.5 mm
06:30 PM 84.5°F29.2°C 74.5°F23.6°C 72% Calm Calm 1.0 mph1.6 kmh 30.01 in1016.3 mb 0.00 in0.0 mm 0.00 in0.0 mm 0.06 in1.5 mm
06:45 PM 83.6°F28.7°C 73.6°F23.1°C 72% 4.0 mph SSW6.4 kmh SSW 6.1 mph9.8 kmh 30.02 in1016.6 mb 0.00 in0.0 mm 0.00 in0.0 mm 0.06 in1.5 mm
07:00 PM 82.7°F28.2°C 73.6°F23.1°C 74% Calm Calm 2.0 mph3.2 kmh 30.02 in1016.6 mb 0.00 in0.0 mm 0.00 in0.0 mm 0.06 in1.5 mm
07:15 PM 81.6°F27.6°C 73.7°F23.2°C 77% 1.0 mph WSW1.6 kmh WSW 2.0 mph3.2 kmh 30.02 in1016.6 mb 0.00 in0.0 mm 0.00 in0.0 mm 0.06 in1.5 mm
07:30 PM 81.2°F27.3°C 73.7°F23.2°C 78% 1.0 mph SE1.6 kmh SE 1.0 mph1.6 kmh 30.03 in1016.9 mb 0.00 in0.0 mm 0.00 in0.0 mm 0.06 in1.5 mm
07:45 PM 80.4°F26.9°C 73.3°F22.9°C 79% Calm Calm 1.0 mph1.6 kmh 30.03 in1016.9 mb 0.00 in0.0 mm 0.00 in0.0 mm 0.06 in1.5 mm
08:00 PM 79.6°F26.4°C 73.6°F23.1°C 82% Calm Calm -- 30.03 in1016.9 mb 0.00 in0.0 mm 0.00 in0.0 mm 0.06 in1.5 mm
08:15 PM 79.0°F26.1°C 73.4°F23.0°C 83% Calm Calm -- 30.04 in1017.3 mb 0.00 in0.0 mm 0.00 in0.0 mm 0.06 in1.5 mm
08:30 PM 78.2°F25.7°C 73.3°F22.9°C 85% Calm Calm -- 30.04 in1017.3 mb 0.00 in0.0 mm 0.00 in0.0 mm 0.06 in1.5 mm
08:45 PM 77.7°F25.4°C 72.8°F22.7°C 85% Calm Calm -- 30.05 in1017.6 mb 0.00 in0.0 mm 0.00 in0.0 mm 0.06 in1.5 mm
09:00 PM 77.0°F25.0°C 72.8°F22.7°C 87% Calm Calm -- 30.05 in1017.6 mb 0.00 in0.0 mm 0.00 in0.0 mm 0.06 in1.5 mm
09:15 PM 76.6°F24.8°C 73.1°F22.8°C 89% Calm Calm -- 30.05 in1017.6 mb 0.00 in0.0 mm 0.00 in0.0 mm 0.06 in1.5 mm
09:30 PM 76.1°F24.5°C 72.6°F22.6°C 89% Calm Calm -- 30.06 in1017.9 mb 0.00 in0.0 mm 0.00 in0.0 mm 0.06 in1.5 mm
09:45 PM 75.6°F24.2°C 72.4°F22.4°C 90% Calm Calm -- 30.06 in1017.9 mb 0.00 in0.0 mm 0.00 in0.0 mm 0.06 in1.5 mm
10:00 PM 75.3°F24.1°C 72.5°F22.5°C 91% Calm Calm -- 30.06 in1017.9 mb 0.00 in0.0 mm 0.00 in0.0 mm 0.06 in1.5 mm
10:15 PM 74.9°F23.8°C 72.4°F22.4°C 92% Calm Calm -- 30.06 in1017.9 mb 0.00 in0.0 mm 0.00 in0.0 mm 0.06 in1.5 mm
10:30 PM 74.6°F23.7°C 72.1°F22.3°C 92% Calm Calm -- 30.07 in1018.3 mb 0.00 in0.0 mm 0.00 in0.0 mm 0.06 in1.5 mm
10:45 PM 74.3°F23.5°C 72.1°F22.3°C 93% Calm Calm -- 30.07 in1018.3 mb 0.00 in0.0 mm 0.00 in0.0 mm 0.06 in1.5 mm
11:00 PM 74.1°F23.4°C 71.9°F22.2°C 93% Calm Calm -- 30.07 in1018.3 mb 0.00 in0.0 mm 0.00 in0.0 mm 0.06 in1.5 mm
11:15 PM 73.8°F23.2°C 71.9°F22.2°C 94% Calm Calm -- 30.07 in1018.3 mb 0.00 in0.0 mm 0.00 in0.0 mm 0.06 in1.5 mm
11:30 PM 73.4°F23.0°C 71.2°F21.8°C 93% Calm Calm -- 30.07 in1018.3 mb 0.00 in0.0 mm 0.00 in0.0 mm 0.06 in1.5 mm
11:45 PM 73.1°F22.8°C 71.2°F21.8°C 94% Calm Calm -- 30.07 in1018.3 mb 0.00 in0.0 mm 0.00 in0.0 mm 0.06 in1.5 mm